KREO

Rome State Airport

Rome, Oregon, USA
METAR KREO 151852Z AUTO 20018G24KT 03/M06 A2967 RMK AO1 SLP058 T00281056
Observed Flight Rules
Feb-15 @ 18:52 UTC (18 minutes ago)
Wind
200° at 18 knots
 Gusting to 24 knots
Temperatures Readings
Current 3°C / 37°F
Dewpoint -6°C / 21°F
Humidity 52%
Altimeter 29.67" Hg
Pressure 1005.8 hPa
Elevation 1235
METAR KREO 151852Z AUTO 20018G24KT 03/M06 A2967 RMK AO1 SLP058 T00281056
Observed Flight Rules
Feb-15 @ 18:52 UTC
(18 minutes ago)
Wind
200° at 18 knots
 Gusting to 24 knots
Temperature Dewpoint
3°C / 37°F -6°C / 21°F
Humidity Altimeter Pressure
52% 29.67" Hg 1005.8 hPa